sensor_id;sensor_type;location;lat;lon;timestamp;pressure;altitude;pressure_sealevel;temperature;humidity
21236;BME280;10775;42.678;26.324;2023-01-31T00:00:04;98167.94;;;1.43;100.00
21236;BME280;10775;42.678;26.324;2023-01-31T00:02:32;98168.63;;;1.23;100.00
21236;BME280;10775;42.678;26.324;2023-01-31T00:04:58;98167.00;;;1.35;100.00
21236;BME280;10775;42.678;26.324;2023-01-31T00:07:24;98168.69;;;1.33;100.00
21236;BME280;10775;42.678;26.324;2023-01-31T00:09:50;98168.53;;;1.14;100.00
21236;BME280;10775;42.678;26.324;2023-01-31T00:12:15;98167.50;;;0.97;100.00
21236;BME280;10775;42.678;26.324;2023-01-31T00:14:41;98155.72;;;1.22;100.00
21236;BME280;10775;42.678;26.324;2023-01-31T00:17:06;98155.81;;;1.33;100.00
21236;BME280;10775;42.678;26.324;2023-01-31T00:19:32;98152.41;;;1.30;100.00
21236;BME280;10775;42.678;26.324;2023-01-31T00:21:57;98154.63;;;0.97;100.00
21236;BME280;10775;42.678;26.324;2023-01-31T00:24:23;98153.72;;;0.92;100.00
21236;BME280;10775;42.678;26.324;2023-01-31T00:26:49;98150.38;;;0.97;100.00
21236;BME280;10775;42.678;26.324;2023-01-31T00:29:21;98144.53;;;1.15;100.00
21236;BME280;10775;42.678;26.324;2023-01-31T00:31:47;98141.34;;;1.44;100.00
21236;BME280;10775;42.678;26.324;2023-01-31T00:34:12;98143.19;;;1.65;100.00
21236;BME280;10775;42.678;26.324;2023-01-31T00:36:38;98133.78;;;1.70;100.00
21236;BME280;10775;42.678;26.324;2023-01-31T00:39:05;98131.28;;;1.81;100.00
21236;BME280;10775;42.678;26.324;2023-01-31T00:41:31;98135.63;;;1.88;100.00
21236;BME280;10775;42.678;26.324;2023-01-31T00:43:57;98133.91;;;1.88;100.00
21236;BME280;10775;42.678;26.324;2023-01-31T00:46:23;98137.31;;;1.84;100.00
21236;BME280;10775;42.678;26.324;2023-01-31T00:48:49;98126.13;;;1.84;100.00
21236;BME280;10775;42.678;26.324;2023-01-31T00:51:16;98128.50;;;1.48;100.00
21236;BME280;10775;42.678;26.324;2023-01-31T00:53:42;98118.94;;;1.37;100.00
21236;BME280;10775;42.678;26.324;2023-01-31T00:56:13;98125.84;;;1.41;100.00
21236;BME280;10775;42.678;26.324;2023-01-31T00:58:39;98114.72;;;1.45;100.00
21236;BME280;10775;42.678;26.324;2023-01-31T01:03:35;98110.63;;;1.76;100.00
21236;BME280;10775;42.678;26.324;2023-01-31T01:06:01;98114.03;;;1.70;100.00
21236;BME280;10775;42.678;26.324;2023-01-31T01:08:28;98118.22;;;1.58;100.00
21236;BME280;10775;42.678;26.324;2023-01-31T01:10:54;98118.94;;;1.34;100.00
21236;BME280;10775;42.678;26.324;2023-01-31T01:13:20;98122.47;;;0.55;100.00
21236;BME280;10775;42.678;26.324;2023-01-31T01:15:46;98118.44;;;0.80;100.00
21236;BME280;10775;42.678;26.324;2023-01-31T01:18:11;98116.00;;;0.92;100.00
21236;BME280;10775;42.678;26.324;2023-01-31T01:20:37;98112.69;;;1.05;100.00
21236;BME280;10775;42.678;26.324;2023-01-31T01:23:03;98120.50;;;1.19;100.00
21236;BME280;10775;42.678;26.324;2023-01-31T01:25:28;98113.56;;;1.07;100.00
21236;BME280;10775;42.678;26.324;2023-01-31T01:27:54;98111.06;;;1.17;100.00
21236;BME280;10775;42.678;26.324;2023-01-31T01:30:19;98100.75;;;1.17;100.00
21236;BME280;10775;42.678;26.324;2023-01-31T01:32:45;98098.13;;;1.09;100.00
21236;BME280;10775;42.678;26.324;2023-01-31T01:35:11;98089.44;;;0.95;100.00
21236;BME280;10775;42.678;26.324;2023-01-31T01:37:37;98088.59;;;0.99;100.00
21236;BME280;10775;42.678;26.324;2023-01-31T01:40:03;98090.50;;;1.21;100.00
21236;BME280;10775;42.678;26.324;2023-01-31T01:42:33;98089.75;;;1.38;100.00
21236;BME280;10775;42.678;26.324;2023-01-31T01:45:00;98090.69;;;1.46;100.00
21236;BME280;10775;42.678;26.324;2023-01-31T01:52:33;98090.50;;;1.21;100.00
21236;BME280;10775;42.678;26.324;2023-01-31T01:55:15;98095.72;;;1.30;100.00
21236;BME280;10775;42.678;26.324;2023-01-31T02:00:46;98100.84;;;1.26;100.00
21236;BME280;10775;42.678;26.324;2023-01-31T02:03:13;98117.28;;;1.42;100.00
21236;BME280;10775;42.678;26.324;2023-01-31T02:05:43;98113.75;;;1.32;100.00
21236;BME280;10775;42.678;26.324;2023-01-31T02:08:09;98109.72;;;0.65;100.00
21236;BME280;10775;42.678;26.324;2023-01-31T02:10:55;98107.41;;;0.93;100.00
21236;BME280;10775;42.678;26.324;2023-01-31T02:13:22;98105.78;;;1.01;100.00
21236;BME280;10775;42.678;26.324;2023-01-31T02:15:48;98104.06;;;1.00;100.00
21236;BME280;10775;42.678;26.324;2023-01-31T02:18:14;98111.91;;;1.13;100.00
21236;BME280;10775;42.678;26.324;2023-01-31T02:34:53;98102.38;;;1.07;100.00
21236;BME280;10775;42.678;26.324;2023-01-31T02:43:18;98107.63;;;1.16;100.00
21236;BME280;10775;42.678;26.324;2023-01-31T02:45:58;98113.78;;;1.34;100.00
21236;BME280;10775;42.678;26.324;2023-01-31T02:48:40;98113.88;;;1.47;100.00
21236;BME280;10775;42.678;26.324;2023-01-31T02:51:31;98113.03;;;1.50;100.00
21236;BME280;10775;42.678;26.324;2023-01-31T02:54:14;98111.13;;;1.23;100.00
21236;BME280;10775;42.678;26.324;2023-01-31T02:56:45;98117.22;;;1.36;100.00
21236;BME280;10775;42.678;26.324;2023-01-31T02:59:19;98121.59;;;1.50;100.00
21236;BME280;10775;42.678;26.324;2023-01-31T03:01:55;98101.59;;;1.14;100.00
21236;BME280;10775;42.678;26.324;2023-01-31T03:04:22;98100.84;;;1.27;100.00
21236;BME280;10775;42.678;26.324;2023-01-31T03:06:58;98113.78;;;1.34;100.00
21236;BME280;10775;42.678;26.324;2023-01-31T03:12:15;98105.16;;;1.32;100.00
21236;BME280;10775;42.678;26.324;2023-01-31T03:20:40;98117.38;;;1.57;100.00
21236;BME280;10775;42.678;26.324;2023-01-31T03:23:26;98123.38;;;1.55;100.00
21236;BME280;10775;42.678;26.324;2023-01-31T03:25:55;98121.66;;;1.55;100.00
21236;BME280;10775;42.678;26.324;2023-01-31T03:28:27;98123.41;;;1.56;100.00
21236;BME280;10775;42.678;26.324;2023-01-31T03:31:31;98125.97;;;1.56;100.00
21236;BME280;10775;42.678;26.324;2023-01-31T03:34:05;98123.22;;;1.35;100.00
21236;BME280;10775;42.678;26.324;2023-01-31T03:36:40;98129.19;;;1.29;100.00
21236;BME280;10775;42.678;26.324;2023-01-31T03:42:01;98127.66;;;1.54;100.00
21236;BME280;10775;42.678;26.324;2023-01-31T03:47:34;98105.31;;;1.53;100.00
21236;BME280;10775;42.678;26.324;2023-01-31T03:50:01;98094.81;;;1.24;100.00
21236;BME280;10775;42.678;26.324;2023-01-31T03:52:31;98102.38;;;1.02;100.00
21236;BME280;10775;42.678;26.324;2023-01-31T03:55:07;98099.03;;;1.16;100.00
21236;BME280;10775;42.678;26.324;2023-01-31T03:57:36;98101.47;;;1.00;100.00
21236;BME280;10775;42.678;26.324;2023-01-31T04:00:07;98101.47;;;0.99;100.00
21236;BME280;10775;42.678;26.324;2023-01-31T04:02:36;98096.38;;;1.06;100.00
21236;BME280;10775;42.678;26.324;2023-01-31T04:05:20;98104.25;;;1.23;100.00
21236;BME280;10775;42.678;26.324;2023-01-31T04:07:47;98108.66;;;1.40;100.00
21236;BME280;10775;42.678;26.324;2023-01-31T04:10:17;98104.22;;;1.20;100.00
21236;BME280;10775;42.678;26.324;2023-01-31T04:12:44;98101.72;;;1.29;100.00
21236;BME280;10775;42.678;26.324;2023-01-31T04:15:11;98093.81;;;1.05;100.00
21236;BME280;10775;42.678;26.324;2023-01-31T04:17:37;98109.03;;;0.83;100.00
21236;BME280;10775;42.678;26.324;2023-01-31T04:20:04;98100.03;;;0.41;100.00
21236;BME280;10775;42.678;26.324;2023-01-31T04:22:30;98110.78;;;0.86;100.00
21236;BME280;10775;42.678;26.324;2023-01-31T04:24:56;98118.38;;;0.74;100.00
21236;BME280;10775;42.678;26.324;2023-01-31T04:27:21;98103.50;;;0.43;100.00
21236;BME280;10775;42.678;26.324;2023-01-31T04:29:47;98113.91;;;0.56;100.00
21236;BME280;10775;42.678;26.324;2023-01-31T04:32:12;98109.31;;;0.30;100.00
21236;BME280;10775;42.678;26.324;2023-01-31T04:34:38;98105.84;;;0.25;100.00
21236;BME280;10775;42.678;26.324;2023-01-31T04:37:04;98096.00;;;0.65;100.00
21236;BME280;10775;42.678;26.324;2023-01-31T04:39:29;98104.84;;;0.14;100.00
21236;BME280;10775;42.678;26.324;2023-01-31T04:41:54;98097.25;;;0.25;100.00
21236;BME280;10775;42.678;26.324;2023-01-31T04:44:20;98097.50;;;0.45;100.00
21236;BME280;10775;42.678;26.324;2023-01-31T04:46:45;98111.34;;;0.57;100.00
21236;BME280;10775;42.678;26.324;2023-01-31T04:49:14;98111.56;;;0.77;100.00
21236;BME280;10775;42.678;26.324;2023-01-31T04:51:40;98118.28;;;0.63;100.00
21236;BME280;10775;42.678;26.324;2023-01-31T04:54:06;98129.59;;;0.80;100.00
21236;BME280;10775;42.678;26.324;2023-01-31T04:56:32;98129.00;;;1.09;100.00
21236;BME280;10775;42.678;26.324;2023-01-31T04:58:57;98138.09;;;0.73;100.00
21236;BME280;10775;42.678;26.324;2023-01-31T05:01:24;98131.91;;;0.56;100.00
21236;BME280;10775;42.678;26.324;2023-01-31T05:03:49;98123.59;;;0.81;100.00
21236;BME280;10775;42.678;26.324;2023-01-31T05:06:15;98126.38;;;1.00;100.00
21236;BME280;10775;42.678;26.324;2023-01-31T05:08:40;98126.63;;;1.30;100.00
21236;BME280;10775;42.678;26.324;2023-01-31T05:11:06;98132.72;;;1.42;100.00
21236;BME280;10775;42.678;26.324;2023-01-31T05:13:32;98127.66;;;1.54;100.00
21236;BME280;10775;42.678;26.324;2023-01-31T05:16:02;98128.56;;;1.61;100.00
21236;BME280;10775;42.678;26.324;2023-01-31T05:18:27;98133.78;;;1.70;100.00
21236;BME280;10775;42.678;26.324;2023-01-31T05:20:53;98130.41;;;1.77;100.00
21236;BME280;10775;42.678;26.324;2023-01-31T05:23:18;98129.50;;;1.73;100.00
21236;BME280;10775;42.678;26.324;2023-01-31T05:25:44;98132.94;;;1.69;100.00
21236;BME280;10775;42.678;26.324;2023-01-31T05:28:12;98124.28;;;1.66;100.00
21236;BME280;10775;42.678;26.324;2023-01-31T05:30:38;98133.97;;;2.01;100.00
21236;BME280;10775;42.678;26.324;2023-01-31T05:33:03;98145.22;;;2.13;100.00
21236;BME280;10775;42.678;26.324;2023-01-31T05:35:29;98146.94;;;2.14;100.00
21236;BME280;10775;42.678;26.324;2023-01-31T05:37:55;98139.16;;;2.05;100.00
21236;BME280;10775;42.678;26.324;2023-01-31T05:40:21;98146.88;;;2.02;100.00
21236;BME280;10775;42.678;26.324;2023-01-31T05:42:56;98168.34;;;2.00;100.00
21236;BME280;10775;42.678;26.324;2023-01-31T05:45:22;98156.38;;;2.14;100.00
21236;BME280;10775;42.678;26.324;2023-01-31T05:47:48;98153.88;;;2.28;100.00
21236;BME280;10775;42.678;26.324;2023-01-31T05:50:14;98170.13;;;2.08;100.00
21236;BME280;10775;42.678;26.324;2023-01-31T05:52:40;98164.16;;;2.20;100.00
21236;BME280;10775;42.678;26.324;2023-01-31T05:55:05;98149.72;;;2.62;100.00
21236;BME280;10775;42.678;26.324;2023-01-31T05:57:31;98147.84;;;2.23;100.00
21236;BME280;10775;42.678;26.324;2023-01-31T05:59:56;98165.06;;;2.28;100.00
21236;BME280;10775;42.678;26.324;2023-01-31T06:02:22;98176.34;;;2.46;100.00
21236;BME280;10775;42.678;26.324;2023-01-31T06:04:48;98173.66;;;2.29;100.00
21236;BME280;10775;42.678;26.324;2023-01-31T06:07:14;98181.38;;;2.26;100.00
21236;BME280;10775;42.678;26.324;2023-01-31T06:09:40;98171.75;;;1.92;100.00
21236;BME280;10775;42.678;26.324;2023-01-31T06:12:12;98182.22;;;2.25;100.00
21236;BME280;10775;42.678;26.324;2023-01-31T06:14:38;98187.44;;;2.32;100.00
21236;BME280;10775;42.678;26.324;2023-01-31T06:17:04;98184.88;;;2.37;100.00
21236;BME280;10775;42.678;26.324;2023-01-31T06:19:30;98194.38;;;2.50;100.00
21236;BME280;10775;42.678;26.324;2023-01-31T06:21:55;98203.81;;;2.39;100.00
21236;BME280;10775;42.678;26.324;2023-01-31T06:24:21;98202.03;;;2.32;100.00
21236;BME280;10775;42.678;26.324;2023-01-31T06:26:46;98200.34;;;2.37;100.00
21236;BME280;10775;42.678;26.324;2023-01-31T06:29:12;98201.19;;;2.31;100.00
21236;BME280;10775;42.678;26.324;2023-01-31T06:31:37;98208.03;;;2.26;100.00
21236;BME280;10775;42.678;26.324;2023-01-31T06:34:03;98207.09;;;2.13;100.00
21236;BME280;10775;42.678;26.324;2023-01-31T06:36:32;98203.72;;;2.21;100.00
21236;BME280;10775;42.678;26.324;2023-01-31T06:38:58;98203.81;;;2.42;100.00
21236;BME280;10775;42.678;26.324;2023-01-31T06:41:24;98215.06;;;2.52;100.00
21236;BME280;10775;42.678;26.324;2023-01-31T06:43:50;98206.47;;;2.60;100.00
21236;BME280;10775;42.678;26.324;2023-01-31T06:46:16;98200.53;;;2.75;100.00
21236;BME280;10775;42.678;26.324;2023-01-31T06:48:42;98203.22;;;3.11;100.00
21236;BME280;10775;42.678;26.324;2023-01-31T06:51:08;98200.59;;;3.00;100.00
21236;BME280;10775;42.678;26.324;2023-01-31T06:53:34;98210.09;;;2.99;100.00
21236;BME280;10775;42.678;26.324;2023-01-31T06:56:00;98198.94;;;3.37;100.00
21236;BME280;10775;42.678;26.324;2023-01-31T06:58:26;98201.56;;;3.56;100.00
21236;BME280;10775;42.678;26.324;2023-01-31T07:00:52;98211.00;;;3.29;100.00
21236;BME280;10775;42.678;26.324;2023-01-31T07:03:18;98204.97;;;3.36;100.00
21236;BME280;10775;42.678;26.324;2023-01-31T07:05:45;98207.59;;;3.68;100.00
21236;BME280;10775;42.678;26.324;2023-01-31T07:08:10;98210.16;;;3.45;100.00
21236;BME280;10775;42.678;26.324;2023-01-31T07:10:36;98210.16;;;3.47;100.00
21236;BME280;10775;42.678;26.324;2023-01-31T07:13:02;98205.84;;;3.90;100.00
21236;BME280;10775;42.678;26.324;2023-01-31T07:15:28;98205.00;;;3.76;100.00
21236;BME280;10775;42.678;26.324;2023-01-31T07:17:57;98201.53;;;3.36;100.00
21236;BME280;10775;42.678;26.324;2023-01-31T07:20:23;98198.97;;;3.74;100.00
21236;BME280;10775;42.678;26.324;2023-01-31T07:22:56;98215.28;;;3.10;100.00
21236;BME280;10775;42.678;26.324;2023-01-31T07:25:22;98220.47;;;3.15;100.00
21236;BME280;10775;42.678;26.324;2023-01-31T07:27:48;98223.94;;;3.46;100.00
21236;BME280;10775;42.678;26.324;2023-01-31T07:30:13;98211.88;;;3.80;100.00
21236;BME280;10775;42.678;26.324;2023-01-31T07:32:39;98223.97;;;3.84;100.00
21236;BME280;10775;42.678;26.324;2023-01-31T07:35:05;98229.09;;;4.09;100.00
21236;BME280;10775;42.678;26.324;2023-01-31T07:37:31;98225.66;;;3.73;100.00
21236;BME280;10775;42.678;26.324;2023-01-31T07:39:56;98230.84;;;3.90;100.00
21236;BME280;10775;42.678;26.324;2023-01-31T07:42:22;98224.75;;;4.29;100.00
21236;BME280;10775;42.678;26.324;2023-01-31T07:44:47;98226.47;;;4.46;100.00
21236;BME280;10775;42.678;26.324;2023-01-31T07:47:13;98210.94;;;4.38;100.00
21236;BME280;10775;42.678;26.324;2023-01-31T07:49:39;98216.19;;;4.20;100.00
21236;BME280;10775;42.678;26.324;2023-01-31T07:52:04;98209.25;;;4.20;100.00
21236;BME280;10775;42.678;26.324;2023-01-31T07:54:30;98230.72;;;4.64;100.00
21236;BME280;10775;42.678;26.324;2023-01-31T07:56:55;98233.44;;;3.95;100.00
21236;BME280;10775;42.678;26.324;2023-01-31T07:59:21;98236.84;;;4.35;100.00
21236;BME280;10775;42.678;26.324;2023-01-31T08:01:46;98239.41;;;4.36;100.00
21236;BME280;10775;42.678;26.324;2023-01-31T08:04:32;98229.88;;;4.55;100.00
21236;BME280;10775;42.678;26.324;2023-01-31T08:06:58;98228.06;;;4.84;100.00
21236;BME280;10775;42.678;26.324;2023-01-31T08:09:27;98233.31;;;4.64;100.00
21236;BME280;10775;42.678;26.324;2023-01-31T08:11:53;98234.06;;;4.87;100.00
21236;BME280;10775;42.678;26.324;2023-01-31T08:14:19;98239.41;;;4.50;100.00
21236;BME280;10775;42.678;26.324;2023-01-31T08:16:50;98237.53;;;4.85;100.00
21236;BME280;10775;42.678;26.324;2023-01-31T08:19:15;98247.13;;;4.64;100.00
21236;BME280;10775;42.678;26.324;2023-01-31T08:21:41;98261.00;;;4.14;100.00
21236;BME280;10775;42.678;26.324;2023-01-31T08:24:07;98262.75;;;3.81;100.00
21236;BME280;10775;42.678;26.324;2023-01-31T08:26:32;98260.13;;;4.24;100.00
21236;BME280;10775;42.678;26.324;2023-01-31T08:28:58;98261.88;;;3.56;100.00
21236;BME280;10775;42.678;26.324;2023-01-31T08:31:26;98265.34;;;3.72;100.00
21236;BME280;10775;42.678;26.324;2023-01-31T08:33:52;98273.94;;;4.34;100.00
21236;BME280;10775;42.678;26.324;2023-01-31T08:36:23;98277.31;;;4.68;100.00
21236;BME280;10775;42.678;26.324;2023-01-31T08:38:50;98289.47;;;4.06;100.00
21236;BME280;10775;42.678;26.324;2023-01-31T08:41:17;98289.47;;;4.23;100.00
21236;BME280;10775;42.678;26.324;2023-01-31T08:43:44;98299.84;;;4.17;100.00
21236;BME280;10775;42.678;26.324;2023-01-31T08:46:09;98281.72;;;3.99;100.00
21236;BME280;10775;42.678;26.324;2023-01-31T08:48:37;98303.28;;;3.91;100.00
21236;BME280;10775;42.678;26.324;2023-01-31T08:51:04;98298.09;;;4.38;100.00
21236;BME280;10775;42.678;26.324;2023-01-31T08:53:30;98301.47;;;3.43;100.00
21236;BME280;10775;42.678;26.324;2023-01-31T08:56:00;98298.09;;;3.96;100.00
21236;BME280;10775;42.678;26.324;2023-01-31T08:58:27;98299.81;;;4.34;100.00
21236;BME280;10775;42.678;26.324;2023-01-31T09:00:53;98292.88;;;4.61;100.00
21236;BME280;10775;42.678;26.324;2023-01-31T09:03:18;98290.28;;;4.59;100.00
21236;BME280;10775;42.678;26.324;2023-01-31T09:05:44;98301.50;;;4.52;100.00
21236;BME280;10775;42.678;26.324;2023-01-31T09:08:10;98293.72;;;4.66;100.00
21236;BME280;10775;42.678;26.324;2023-01-31T09:10:36;98304.09;;;4.56;100.00
21236;BME280;10775;42.678;26.324;2023-01-31T09:13:02;98302.34;;;4.78;100.00
21236;BME280;10775;42.678;26.324;2023-01-31T09:15:27;98315.28;;;4.72;100.00
21236;BME280;10775;42.678;26.324;2023-01-31T09:17:53;98305.84;;;4.36;100.00
21236;BME280;10775;42.678;26.324;2023-01-31T09:20:18;98319.66;;;4.13;100.00
21236;BME280;10775;42.678;26.324;2023-01-31T09:22:44;98308.47;;;4.25;100.00
21236;BME280;10775;42.678;26.324;2023-01-31T09:25:10;98315.34;;;4.22;100.00
21236;BME280;10775;42.678;26.324;2023-01-31T09:27:37;98322.19;;;3.67;100.00
21236;BME280;10775;42.678;26.324;2023-01-31T09:30:08;98315.31;;;3.91;100.00
21236;BME280;10775;42.678;26.324;2023-01-31T09:32:34;98314.47;;;4.36;100.00
21236;BME280;10775;42.678;26.324;2023-01-31T09:34:59;98308.44;;;4.19;100.00
21236;BME280;10775;42.678;26.324;2023-01-31T09:37:28;98322.25;;;4.20;100.00
21236;BME280;10775;42.678;26.324;2023-01-31T09:39:54;98317.06;;;4.21;100.00
21236;BME280;10775;42.678;26.324;2023-01-31T09:42:24;98313.59;;;4.39;100.00
21236;BME280;10775;42.678;26.324;2023-01-31T09:47:29;98305.84;;;4.39;100.00
21236;BME280;10775;42.678;26.324;2023-01-31T09:52:38;98291.19;;;3.90;100.00
21236;BME280;10775;42.678;26.324;2023-01-31T09:55:05;98303.28;;;4.13;100.00
21236;BME280;10775;42.678;26.324;2023-01-31T10:00:32;98290.25;;;3.36;100.00
21236;BME280;10775;42.678;26.324;2023-01-31T10:05:51;98290.31;;;4.11;100.00
21236;BME280;10775;42.678;26.324;2023-01-31T10:10:57;98288.63;;;3.98;100.00
21236;BME280;10775;42.678;26.324;2023-01-31T10:13:33;98280.84;;;4.21;100.00
21236;BME280;10775;42.678;26.324;2023-01-31T10:18:50;98278.25;;;4.06;100.00
21236;BME280;10775;42.678;26.324;2023-01-31T10:21:21;98280.81;;;3.63;100.00
21236;BME280;10775;42.678;26.324;2023-01-31T10:24:04;98286.00;;;4.38;100.00
21236;BME280;10775;42.678;26.324;2023-01-31T10:26:36;98266.13;;;4.54;100.00
21236;BME280;10775;42.678;26.324;2023-01-31T10:29:28;98279.97;;;4.36;100.00
21236;BME280;10775;42.678;26.324;2023-01-31T10:32:03;98287.75;;;4.22;100.00
21236;BME280;10775;42.678;26.324;2023-01-31T10:34:37;98275.66;;;4.30;100.00
21236;BME280;10775;42.678;26.324;2023-01-31T10:37:17;98261.84;;;4.31;100.00
21236;BME280;10775;42.678;26.324;2023-01-31T10:39:52;98269.66;;;4.13;100.00
21236;BME280;10775;42.678;26.324;2023-01-31T10:47:53;98255.84;;;3.89;100.00
21236;BME280;10775;42.678;26.324;2023-01-31T10:56:26;98256.69;;;4.11;100.00
21236;BME280;10775;42.678;26.324;2023-01-31T10:58:55;98254.13;;;4.10;100.00
21236;BME280;10775;42.678;26.324;2023-01-31T11:01:22;98259.28;;;4.33;100.00
21236;BME280;10775;42.678;26.324;2023-01-31T11:03:53;98259.28;;;3.45;100.00
21236;BME280;10775;42.678;26.324;2023-01-31T11:06:20;98245.50;;;3.89;100.00
21236;BME280;10775;42.678;26.324;2023-01-31T11:08:58;98254.13;;;4.04;100.00
21236;BME280;10775;42.678;26.324;2023-01-31T11:11:26;98242.00;;;4.24;100.00
21236;BME280;10775;42.678;26.324;2023-01-31T11:14:01;98226.41;;;4.64;100.00
21236;BME280;10775;42.678;26.324;2023-01-31T11:16:30;98235.84;;;4.84;100.00
21236;BME280;10775;42.678;26.324;2023-01-31T11:18:58;98230.78;;;4.39;100.00
21236;BME280;10775;42.678;26.324;2023-01-31T11:21:28;98236.81;;;4.49;100.00
21236;BME280;10775;42.678;26.324;2023-01-31T11:24:05;98233.38;;;4.39;100.00
21236;BME280;10775;42.678;26.324;2023-01-31T11:26:47;98245.50;;;4.17;100.00
21236;BME280;10775;42.678;26.324;2023-01-31T11:29:23;98234.25;;;4.29;100.00
21236;BME280;10775;42.678;26.324;2023-01-31T11:31:52;98240.34;;;3.92;100.00
21236;BME280;10775;42.678;26.324;2023-01-31T11:34:21;98240.31;;;4.23;100.00
21236;BME280;10775;42.678;26.324;2023-01-31T11:36:48;98234.28;;;3.93;100.00
21236;BME280;10775;42.678;26.324;2023-01-31T11:39:37;98231.69;;;3.78;100.00
21236;BME280;10775;42.678;26.324;2023-01-31T11:42:15;98229.09;;;4.27;100.00
21236;BME280;10775;42.678;26.324;2023-01-31T11:44:55;98236.00;;;3.73;100.00
21236;BME280;10775;42.678;26.324;2023-01-31T11:47:48;98225.66;;;4.16;100.00
21236;BME280;10775;42.678;26.324;2023-01-31T11:53:00;98227.38;;;4.23;100.00
21236;BME280;10775;42.678;26.324;2023-01-31T11:55:27;98223.09;;;4.07;100.00
21236;BME280;10775;42.678;26.324;2023-01-31T11:58:00;98216.13;;;4.33;100.00
21236;BME280;10775;42.678;26.324;2023-01-31T12:00:30;98219.50;;;4.63;100.00
21236;BME280;10775;42.678;26.324;2023-01-31T12:03:15;98210.09;;;4.38;100.00
21236;BME280;10775;42.678;26.324;2023-01-31T12:05:49;98226.53;;;4.12;100.00
21236;BME280;10775;42.678;26.324;2023-01-31T12:08:41;98217.88;;;4.25;100.00
21236;BME280;10775;42.678;26.324;2023-01-31T12:13:49;98218.69;;;4.46;99.02
21236;BME280;10775;42.678;26.324;2023-01-31T12:16:18;98215.13;;;4.74;100.00
21236;BME280;10775;42.678;26.324;2023-01-31T12:19:11;98213.41;;;4.76;100.00
21236;BME280;10775;42.678;26.324;2023-01-31T12:22:11;98219.59;;;4.26;97.25
21236;BME280;10775;42.678;26.324;2023-01-31T12:35:19;98235.03;;;4.66;100.00
21236;BME280;10775;42.678;26.324;2023-01-31T12:41:05;98235.78;;;4.90;100.00
21236;BME280;10775;42.678;26.324;2023-01-31T12:43:48;98240.91;;;5.00;100.00
21236;BME280;10775;42.678;26.324;2023-01-31T12:55:19;98236.53;;;5.15;100.00
21236;BME280;10775;42.678;26.324;2023-01-31T12:58:27;98244.19;;;5.36;100.00
21236;BME280;10775;42.678;26.324;2023-01-31T13:01:03;98242.44;;;5.44;100.00
21236;BME280;10775;42.678;26.324;2023-01-31T13:06:41;98243.34;;;5.36;100.00
21236;BME280;10775;42.678;26.324;2023-01-31T13:09:19;98245.91;;;5.42;100.00
21236;BME280;10775;42.678;26.324;2023-01-31T13:11:54;98254.59;;;5.30;100.00
21236;BME280;10775;42.678;26.324;2023-01-31T13:14:25;98249.31;;;5.44;100.00
21236;BME280;10775;42.678;26.324;2023-01-31T13:16:59;98257.00;;;5.61;100.00
21236;BME280;10775;42.678;26.324;2023-01-31T13:19:47;98248.28;;;5.71;100.00
21236;BME280;10775;42.678;26.324;2023-01-31T13:22:24;98258.56;;;5.88;100.00
21236;BME280;10775;42.678;26.324;2023-01-31T13:28:12;98261.38;;;5.53;100.00
21236;BME280;10775;42.678;26.324;2023-01-31T13:30:45;98269.50;;;4.77;100.00
21236;BME280;10775;42.678;26.324;2023-01-31T13:33:24;98278.25;;;3.90;100.00
21236;BME280;10775;42.678;26.324;2023-01-31T13:38:26;98283.44;;;3.87;100.00
21236;BME280;10775;42.678;26.324;2023-01-31T13:40:56;98277.41;;;3.67;100.00
21236;BME280;10775;42.678;26.324;2023-01-31T13:43:22;98278.22;;;4.44;100.00
21236;BME280;10775;42.678;26.324;2023-01-31T13:45:53;98266.03;;;4.86;100.00
21236;BME280;10775;42.678;26.324;2023-01-31T13:48:40;98265.72;;;5.51;100.00
21236;BME280;10775;42.678;26.324;2023-01-31T13:51:20;98278.13;;;4.83;100.00
21236;BME280;10775;42.678;26.324;2023-01-31T13:53:50;98271.22;;;4.75;100.00
21236;BME280;10775;42.678;26.324;2023-01-31T13:56:24;98274.75;;;4.56;100.00
21236;BME280;10775;42.678;26.324;2023-01-31T13:58:53;98286.00;;;4.29;100.00
21236;BME280;10775;42.678;26.324;2023-01-31T14:01:21;98292.88;;;4.64;100.00
21236;BME280;10775;42.678;26.324;2023-01-31T14:09:28;98291.19;;;4.09;100.00
21236;BME280;10775;42.678;26.324;2023-01-31T14:11:56;98291.19;;;4.29;100.00
21236;BME280;10775;42.678;26.324;2023-01-31T14:22:35;98289.28;;;5.03;100.00
21236;BME280;10775;42.678;26.324;2023-01-31T14:30:55;98304.13;;;3.80;99.46
21236;BME280;10775;42.678;26.324;2023-01-31T14:35:49;98304.97;;;3.83;100.00
21236;BME280;10775;42.678;26.324;2023-01-31T14:52:20;98336.88;;;3.85;98.31
21236;BME280;10775;42.678;26.324;2023-01-31T14:57:43;98333.47;;;4.08;100.00
21236;BME280;10775;42.678;26.324;2023-01-31T15:05:13;98339.50;;;4.48;100.00
21236;BME280;10775;42.678;26.324;2023-01-31T15:08:44;98342.94;;;4.50;100.00
21236;BME280;10775;42.678;26.324;2023-01-31T15:11:04;98343.69;;;3.53;100.00
21236;BME280;10775;42.678;26.324;2023-01-31T15:13:49;98349.84;;;4.28;100.00
21236;BME280;10775;42.678;26.324;2023-01-31T15:18:49;98360.16;;;3.78;100.00
21236;BME280;10775;42.678;26.324;2023-01-31T15:21:23;98355.75;;;3.44;100.00
21236;BME280;10775;42.678;26.324;2023-01-31T15:23:51;98347.09;;;3.29;100.00
21236;BME280;10775;42.678;26.324;2023-01-31T15:26:17;98341.16;;;3.76;100.00
21236;BME280;10775;42.678;26.324;2023-01-31T15:28:44;98343.81;;;4.03;100.00
21236;BME280;10775;42.678;26.324;2023-01-31T15:31:21;98353.31;;;3.97;100.00
21236;BME280;10775;42.678;26.324;2023-01-31T15:33:51;98355.78;;;3.57;100.00
21236;BME280;10775;42.678;26.324;2023-01-31T15:36:41;98341.88;;;3.18;100.00
21236;BME280;10775;42.678;26.324;2023-01-31T15:39:28;98360.94;;;3.46;100.00